sensor_id;sensor_type;location;lat;lon;timestamp;pressure;altitude;pressure_sealevel;temperature;humidity
76448;BME280;65284;51.040;13.722;2023-12-20T00:00:55;99463.69;;;5.49;100.00
76448;BME280;65284;51.040;13.722;2023-12-20T00:03:22;99463.16;;;5.45;100.00
76448;BME280;65284;51.040;13.722;2023-12-20T00:05:48;99449.84;;;5.47;100.00
76448;BME280;65284;51.040;13.722;2023-12-20T00:08:15;99451.53;;;5.38;100.00
76448;BME280;65284;51.040;13.722;2023-12-20T00:10:41;99451.25;;;5.41;100.00
76448;BME280;65284;51.040;13.722;2023-12-20T00:13:08;99455.00;;;5.39;100.00
76448;BME280;65284;51.040;13.722;2023-12-20T00:15:35;99465.81;;;5.36;100.00
76448;BME280;65284;51.040;13.722;2023-12-20T00:18:01;99445.16;;;5.31;100.00
76448;BME280;65284;51.040;13.722;2023-12-20T00:20:28;99441.28;;;5.25;100.00
76448;BME280;65284;51.040;13.722;2023-12-20T00:22:56;99426.03;;;5.29;100.00
76448;BME280;65284;51.040;13.722;2023-12-20T00:25:24;99427.28;;;5.25;100.00
76448;BME280;65284;51.040;13.722;2023-12-20T00:27:51;99440.03;;;5.20;100.00
76448;BME280;65284;51.040;13.722;2023-12-20T00:30:18;99432.84;;;5.22;100.00
76448;BME280;65284;51.040;13.722;2023-12-20T00:32:44;99442.69;;;5.20;100.00
76448;BME280;65284;51.040;13.722;2023-12-20T00:35:14;99437.41;;;5.20;100.00
76448;BME280;65284;51.040;13.722;2023-12-20T00:37:41;99429.13;;;5.15;100.00
76448;BME280;65284;51.040;13.722;2023-12-20T00:40:08;99431.06;;;5.13;100.00
76448;BME280;65284;51.040;13.722;2023-12-20T00:42:35;99431.88;;;5.13;100.00
76448;BME280;65284;51.040;13.722;2023-12-20T00:45:02;99436.88;;;5.07;100.00
76448;BME280;65284;51.040;13.722;2023-12-20T00:47:31;99426.09;;;5.00;100.00
76448;BME280;65284;51.040;13.722;2023-12-20T00:49:57;99424.97;;;5.02;100.00
76448;BME280;65284;51.040;13.722;2023-12-20T00:52:24;99431.47;;;4.98;100.00
76448;BME280;65284;51.040;13.722;2023-12-20T00:54:51;99420.41;;;4.95;100.00
76448;BME280;65284;51.040;13.722;2023-12-20T00:57:18;99409.47;;;4.90;100.00
76448;BME280;65284;51.040;13.722;2023-12-20T00:59:44;99400.47;;;4.92;100.00
76448;BME280;65284;51.040;13.722;2023-12-20T01:02:11;99413.63;;;4.92;100.00
76448;BME280;65284;51.040;13.722;2023-12-20T01:04:37;99415.00;;;4.87;100.00
76448;BME280;65284;51.040;13.722;2023-12-20T01:07:04;99412.25;;;4.88;100.00
76448;BME280;65284;51.040;13.722;2023-12-20T01:09:30;99393.97;;;4.87;100.00
76448;BME280;65284;51.040;13.722;2023-12-20T01:11:57;99405.88;;;4.81;100.00
76448;BME280;65284;51.040;13.722;2023-12-20T01:14:23;99398.69;;;4.83;100.00
76448;BME280;65284;51.040;13.722;2023-12-20T01:16:49;99384.28;;;4.77;100.00
76448;BME280;65284;51.040;13.722;2023-12-20T01:19:16;99393.00;;;4.78;100.00
76448;BME280;65284;51.040;13.722;2023-12-20T01:21:43;99384.28;;;4.77;100.00
76448;BME280;65284;51.040;13.722;2023-12-20T01:24:09;99373.22;;;4.74;100.00
76448;BME280;65284;51.040;13.722;2023-12-20T01:26:36;99388.00;;;4.75;100.00
76448;BME280;65284;51.040;13.722;2023-12-20T01:29:02;99381.75;;;4.76;100.00
76448;BME280;65284;51.040;13.722;2023-12-20T01:31:29;99376.78;;;4.73;100.00
76448;BME280;65284;51.040;13.722;2023-12-20T01:33:55;99383.72;;;4.74;100.00
76448;BME280;65284;51.040;13.722;2023-12-20T01:36:22;99372.22;;;4.75;100.00
76448;BME280;65284;51.040;13.722;2023-12-20T01:38:48;99382.63;;;4.76;100.00
76448;BME280;65284;51.040;13.722;2023-12-20T01:41:15;99369.75;;;4.73;100.00
76448;BME280;65284;51.040;13.722;2023-12-20T01:43:42;99378.75;;;4.71;100.00
76448;BME280;65284;51.040;13.722;2023-12-20T01:46:17;99364.91;;;4.69;100.00
76448;BME280;65284;51.040;13.722;2023-12-20T01:48:43;99359.91;;;4.66;100.00
76448;BME280;65284;51.040;13.722;2023-12-20T01:51:10;99366.28;;;4.63;100.00
76448;BME280;65284;51.040;13.722;2023-12-20T01:53:38;99363.09;;;4.60;100.00
76448;BME280;65284;51.040;13.722;2023-12-20T01:56:05;99392.31;;;4.56;100.00
76448;BME280;65284;51.040;13.722;2023-12-20T01:58:32;99351.59;;;4.61;100.00
76448;BME280;65284;51.040;13.722;2023-12-20T02:00:58;99374.88;;;4.55;100.00
76448;BME280;65284;51.040;13.722;2023-12-20T02:03:25;99372.38;;;4.54;100.00
76448;BME280;65284;51.040;13.722;2023-12-20T02:05:52;99360.31;;;4.51;100.00
76448;BME280;65284;51.040;13.722;2023-12-20T02:08:19;99352.16;;;4.54;100.00
76448;BME280;65284;51.040;13.722;2023-12-20T02:10:45;99366.28;;;4.53;100.00
76448;BME280;65284;51.040;13.722;2023-12-20T02:13:12;99348.00;;;4.52;100.00
76448;BME280;65284;51.040;13.722;2023-12-20T02:15:38;99352.44;;;4.51;100.00
76448;BME280;65284;51.040;13.722;2023-12-20T02:18:05;99350.09;;;4.48;100.00
76448;BME280;65284;51.040;13.722;2023-12-20T02:20:32;99334.03;;;4.51;100.00
76448;BME280;65284;51.040;13.722;2023-12-20T02:22:58;99336.66;;;4.51;100.00
76448;BME280;65284;51.040;13.722;2023-12-20T02:25:25;99340.25;;;4.50;100.00
76448;BME280;65284;51.040;13.722;2023-12-20T02:27:52;99354.63;;;4.46;100.00
76448;BME280;65284;51.040;13.722;2023-12-20T02:30:18;99352.28;;;4.43;100.00
76448;BME280;65284;51.040;13.722;2023-12-20T02:32:45;99349.09;;;4.49;100.00
76448;BME280;65284;51.040;13.722;2023-12-20T02:35:11;99331.69;;;4.48;100.00
76448;BME280;65284;51.040;13.722;2023-12-20T02:37:38;99349.38;;;4.46;100.00
76448;BME280;65284;51.040;13.722;2023-12-20T02:40:05;99349.38;;;4.46;100.00
76448;BME280;65284;51.040;13.722;2023-12-20T02:42:32;99328.91;;;4.40;100.00
76448;BME280;65284;51.040;13.722;2023-12-20T02:44:58;99340.25;;;4.41;100.00
76448;BME280;65284;51.040;13.722;2023-12-20T02:47:24;99357.69;;;4.42;100.00
76448;BME280;65284;51.040;13.722;2023-12-20T02:49:51;99337.78;;;4.39;100.00
76448;BME280;65284;51.040;13.722;2023-12-20T02:52:19;99337.78;;;4.39;100.00
76448;BME280;65284;51.040;13.722;2023-12-20T02:54:45;99337.78;;;4.39;100.00
76448;BME280;65284;51.040;13.722;2023-12-20T02:57:12;99350.50;;;4.44;100.00
76448;BME280;65284;51.040;13.722;2023-12-20T02:59:38;99341.38;;;4.38;100.00
76448;BME280;65284;51.040;13.722;2023-12-20T03:02:05;99336.13;;;4.38;100.00
76448;BME280;65284;51.040;13.722;2023-12-20T03:04:31;99335.25;;;4.38;100.00
76448;BME280;65284;51.040;13.722;2023-12-20T03:06:58;99348.28;;;4.39;100.00
76448;BME280;65284;51.040;13.722;2023-12-20T03:09:25;99323.66;;;4.40;100.00
76448;BME280;65284;51.040;13.722;2023-12-20T03:11:51;99323.38;;;4.33;100.00
76448;BME280;65284;51.040;13.722;2023-12-20T03:14:17;99321.56;;;4.34;100.00
76448;BME280;65284;51.040;13.722;2023-12-20T03:16:49;99345.50;;;4.31;100.00
76448;BME280;65284;51.040;13.722;2023-12-20T03:19:17;99352.44;;;4.32;100.00
76448;BME280;65284;51.040;13.722;2023-12-20T03:21:43;99343.97;;;4.28;100.00
76448;BME280;65284;51.040;13.722;2023-12-20T03:24:10;99331.41;;;4.32;100.00
76448;BME280;65284;51.040;13.722;2023-12-20T03:26:36;99327.81;;;4.33;100.00
76448;BME280;65284;51.040;13.722;2023-12-20T03:29:03;99330.00;;;4.28;100.00
76448;BME280;65284;51.040;13.722;2023-12-20T03:31:29;99310.66;;;4.29;100.00
76448;BME280;65284;51.040;13.722;2023-12-20T03:33:56;99308.44;;;4.24;100.00
76448;BME280;65284;51.040;13.722;2023-12-20T03:36:22;99314.50;;;4.25;100.00
76448;BME280;65284;51.040;13.722;2023-12-20T03:38:49;99307.59;;;4.24;100.00
76448;BME280;65284;51.040;13.722;2023-12-20T03:41:15;99302.06;;;4.27;100.00
76448;BME280;65284;51.040;13.722;2023-12-20T03:43:42;99310.91;;;4.26;100.00
76448;BME280;65284;51.040;13.722;2023-12-20T03:46:08;99304.00;;;4.25;100.00
76448;BME280;65284;51.040;13.722;2023-12-20T03:48:35;99316.16;;;4.26;100.00
76448;BME280;65284;51.040;13.722;2023-12-20T03:51:01;99309.13;;;4.26;100.00
76448;BME280;65284;51.040;13.722;2023-12-20T03:53:28;99312.88;;;4.24;100.00
76448;BME280;65284;51.040;13.722;2023-12-20T03:55:54;99310.66;;;4.29;100.00
76448;BME280;65284;51.040;13.722;2023-12-20T03:58:21;99295.13;;;4.26;100.00
76448;BME280;65284;51.040;13.722;2023-12-20T04:00:47;99300.16;;;4.29;100.00
76448;BME280;65284;51.040;13.722;2023-12-20T04:03:14;99318.78;;;4.26;100.00
76448;BME280;65284;51.040;13.722;2023-12-20T04:05:41;99304.28;;;4.31;100.00
76448;BME280;65284;51.040;13.722;2023-12-20T04:08:08;99317.16;;;4.25;100.00
76448;BME280;65284;51.040;13.722;2023-12-20T04:10:34;99303.72;;;4.28;100.00
76448;BME280;65284;51.040;13.722;2023-12-20T04:13:01;99305.66;;;4.26;100.00
76448;BME280;65284;51.040;13.722;2023-12-20T04:15:27;99313.53;;;4.26;100.00
76448;BME280;65284;51.040;13.722;2023-12-20T04:17:53;99288.22;;;4.25;100.00
76448;BME280;65284;51.040;13.722;2023-12-20T04:20:20;99302.34;;;4.24;100.00
76448;BME280;65284;51.040;13.722;2023-12-20T04:22:46;99315.34;;;4.25;100.00
76448;BME280;65284;51.040;13.722;2023-12-20T04:25:13;99300.41;;;4.26;100.00
76448;BME280;65284;51.040;13.722;2023-12-20T04:27:39;99310.91;;;4.26;100.00
76448;BME280;65284;51.040;13.722;2023-12-20T04:30:06;99303.31;;;4.23;100.00
76448;BME280;65284;51.040;13.722;2023-12-20T04:32:34;99307.34;;;4.27;100.00
76448;BME280;65284;51.040;13.722;2023-12-20T04:35:00;99307.59;;;4.24;100.00
76448;BME280;65284;51.040;13.722;2023-12-20T04:37:27;99296.13;;;4.25;100.00
76448;BME280;65284;51.040;13.722;2023-12-20T04:39:53;99299.28;;;4.28;100.00
76448;BME280;65284;51.040;13.722;2023-12-20T04:42:19;99304.28;;;4.31;100.00
76448;BME280;65284;51.040;13.722;2023-12-20T04:44:46;99318.13;;;4.24;100.00
76448;BME280;65284;51.040;13.722;2023-12-20T04:47:12;99302.06;;;4.27;100.00
76448;BME280;65284;51.040;13.722;2023-12-20T04:49:39;99310.25;;;4.24;100.00
76448;BME280;65284;51.040;13.722;2023-12-20T04:52:05;99307.59;;;4.24;100.00
76448;BME280;65284;51.040;13.722;2023-12-20T04:54:32;99311.19;;;4.23;100.00
76448;BME280;65284;51.040;13.722;2023-12-20T04:56:58;99321.41;;;4.26;100.00
76448;BME280;65284;51.040;13.722;2023-12-20T04:59:25;99314.50;;;4.25;100.00
76448;BME280;65284;51.040;13.722;2023-12-20T05:01:51;99311.75;;;4.26;100.00
76448;BME280;65284;51.040;13.722;2023-12-20T05:04:18;99300.00;;;4.30;100.00
76448;BME280;65284;51.040;13.722;2023-12-20T05:06:44;99300.00;;;4.30;100.00
76448;BME280;65284;51.040;13.722;2023-12-20T05:09:11;99309.25;;;4.34;100.00
76448;BME280;65284;51.040;13.722;2023-12-20T05:11:37;99314.50;;;4.34;100.00
76448;BME280;65284;51.040;13.722;2023-12-20T05:14:04;99313.69;;;4.34;100.00
76448;BME280;65284;51.040;13.722;2023-12-20T05:16:30;99312.84;;;4.33;100.00
76448;BME280;65284;51.040;13.722;2023-12-20T05:18:56;99313.69;;;4.34;100.00
76448;BME280;65284;51.040;13.722;2023-12-20T05:21:23;99311.47;;;4.39;100.00
76448;BME280;65284;51.040;13.722;2023-12-20T05:23:49;99309.13;;;4.36;100.00
76448;BME280;65284;51.040;13.722;2023-12-20T05:26:16;99321.56;;;4.34;100.00
76448;BME280;65284;51.040;13.722;2023-12-20T05:28:42;99329.47;;;4.34;100.00
76448;BME280;65284;51.040;13.722;2023-12-20T05:31:09;99344.94;;;4.37;100.00
76448;BME280;65284;51.040;13.722;2023-12-20T05:33:35;99341.50;;;4.37;100.00
76448;BME280;65284;51.040;13.722;2023-12-20T05:36:02;99350.91;;;4.39;100.00
76448;BME280;65284;51.040;13.722;2023-12-20T05:38:28;99337.06;;;4.37;100.00
76448;BME280;65284;51.040;13.722;2023-12-20T05:40:55;99336.94;;;4.39;100.00
76448;BME280;65284;51.040;13.722;2023-12-20T05:43:21;99342.31;;;4.37;100.00
76448;BME280;65284;51.040;13.722;2023-12-20T05:45:48;99341.38;;;4.38;100.00
76448;BME280;65284;51.040;13.722;2023-12-20T05:48:14;99349.25;;;4.38;100.00
76448;BME280;65284;51.040;13.722;2023-12-20T05:50:41;99338.03;;;4.36;100.00
76448;BME280;65284;51.040;13.722;2023-12-20T05:53:07;99351.91;;;4.38;100.00
76448;BME280;65284;51.040;13.722;2023-12-20T05:55:34;99344.97;;;4.47;100.00
76448;BME280;65284;51.040;13.722;2023-12-20T05:58:00;99342.75;;;4.42;100.00
76448;BME280;65284;51.040;13.722;2023-12-20T06:00:27;99348.00;;;4.42;100.00
76448;BME280;65284;51.040;13.722;2023-12-20T06:02:54;99348.56;;;4.46;100.00
76448;BME280;65284;51.040;13.722;2023-12-20T06:05:21;99372.09;;;4.47;100.00
76448;BME280;65284;51.040;13.722;2023-12-20T06:07:47;99367.66;;;4.48;100.00
76448;BME280;65284;51.040;13.722;2023-12-20T06:10:16;99370.28;;;4.48;100.00
76448;BME280;65284;51.040;13.722;2023-12-20T06:12:43;99371.53;;;4.44;100.00
76448;BME280;65284;51.040;13.722;2023-12-20T06:15:09;99351.88;;;4.48;100.00
76448;BME280;65284;51.040;13.722;2023-12-20T06:17:36;99358.25;;;4.45;100.00
76448;BME280;65284;51.040;13.722;2023-12-20T06:20:03;99362.53;;;4.46;100.00
76448;BME280;65284;51.040;13.722;2023-12-20T06:22:35;99361.59;;;4.47;100.00
76448;BME280;65284;51.040;13.722;2023-12-20T06:25:02;99363.50;;;4.55;100.00
76448;BME280;65284;51.040;13.722;2023-12-20T06:27:29;99361.03;;;4.53;100.00
76448;BME280;65284;51.040;13.722;2023-12-20T06:29:55;99365.19;;;4.56;100.00
76448;BME280;65284;51.040;13.722;2023-12-20T06:32:22;99375.69;;;4.56;100.00
76448;BME280;65284;51.040;13.722;2023-12-20T06:34:49;99371.97;;;4.59;100.00
76448;BME280;65284;51.040;13.722;2023-12-20T06:37:16;99383.97;;;4.61;100.00
76448;BME280;65284;51.040;13.722;2023-12-20T06:39:43;99390.78;;;4.64;100.00
76448;BME280;65284;51.040;13.722;2023-12-20T06:42:09;99393.41;;;4.64;100.00
76448;BME280;65284;51.040;13.722;2023-12-20T06:44:35;99390.38;;;4.59;100.00
76448;BME280;65284;51.040;13.722;2023-12-20T06:47:03;99396.16;;;4.52;100.00
76448;BME280;65284;51.040;13.722;2023-12-20T06:49:29;99403.09;;;4.53;100.00
76448;BME280;65284;51.040;13.722;2023-12-20T06:51:56;99409.06;;;4.55;100.00
76448;BME280;65284;51.040;13.722;2023-12-20T06:54:23;99421.94;;;4.59;100.00
76448;BME280;65284;51.040;13.722;2023-12-20T06:56:49;99423.59;;;4.60;100.00
76448;BME280;65284;51.040;13.722;2023-12-20T06:59:16;99416.69;;;4.59;100.00
76448;BME280;65284;51.040;13.722;2023-12-20T07:01:42;99430.78;;;4.57;100.00
76448;BME280;65284;51.040;13.722;2023-12-20T07:04:13;99406.16;;;4.59;100.00
76448;BME280;65284;51.040;13.722;2023-12-20T07:06:40;99426.66;;;4.65;100.00
76448;BME280;65284;51.040;13.722;2023-12-20T07:09:06;99414.16;;;4.67;100.00
76448;BME280;65284;51.040;13.722;2023-12-20T07:11:33;99438.53;;;4.69;100.00
76448;BME280;65284;51.040;13.722;2023-12-20T07:13:59;99422.75;;;4.69;100.00
76448;BME280;65284;51.040;13.722;2023-12-20T07:16:27;99426.91;;;4.71;100.00
76448;BME280;65284;51.040;13.722;2023-12-20T07:18:53;99418.88;;;4.73;100.00
76448;BME280;65284;51.040;13.722;2023-12-20T07:21:20;99415.28;;;4.74;100.00
76448;BME280;65284;51.040;13.722;2023-12-20T07:23:47;99418.88;;;4.73;100.00
76448;BME280;65284;51.040;13.722;2023-12-20T07:26:13;99436.34;;;4.74;100.00
76448;BME280;65284;51.040;13.722;2023-12-20T07:28:40;99430.53;;;4.70;100.00
76448;BME280;65284;51.040;13.722;2023-12-20T07:31:07;99437.28;;;4.73;100.00
76448;BME280;65284;51.040;13.722;2023-12-20T07:33:33;99454.03;;;4.72;100.00
76448;BME280;65284;51.040;13.722;2023-12-20T07:36:05;99432.72;;;4.75;100.00
76448;BME280;65284;51.040;13.722;2023-12-20T07:38:32;99427.34;;;4.76;100.00
76448;BME280;65284;51.040;13.722;2023-12-20T07:40:58;99423.56;;;4.79;100.00
76448;BME280;65284;51.040;13.722;2023-12-20T07:43:25;99428.56;;;4.82;100.00
76448;BME280;65284;51.040;13.722;2023-12-20T07:45:51;99422.91;;;4.77;100.00
76448;BME280;65284;51.040;13.722;2023-12-20T07:48:17;99434.38;;;4.76;100.00
76448;BME280;65284;51.040;13.722;2023-12-20T07:50:44;99427.47;;;4.75;100.00
76448;BME280;65284;51.040;13.722;2023-12-20T07:53:10;99423.03;;;4.75;100.00
76448;BME280;65284;51.040;13.722;2023-12-20T07:55:37;99411.84;;;4.73;100.00
76448;BME280;65284;51.040;13.722;2023-12-20T07:58:03;99420.56;;;4.74;100.00
76448;BME280;65284;51.040;13.722;2023-12-20T08:00:31;99421.66;;;4.71;100.00
76448;BME280;65284;51.040;13.722;2023-12-20T08:02:57;99411.69;;;4.65;100.00
76448;BME280;65284;51.040;13.722;2023-12-20T08:05:24;99412.25;;;4.69;100.00
76448;BME280;65284;51.040;13.722;2023-12-20T08:07:50;99440.19;;;4.70;100.00
76448;BME280;65284;51.040;13.722;2023-12-20T08:10:17;99428.72;;;4.71;100.00
76448;BME280;65284;51.040;13.722;2023-12-20T08:12:45;99426.75;;;4.73;100.00
76448;BME280;65284;51.040;13.722;2023-12-20T08:15:12;99427.47;;;4.75;100.00
76448;BME280;65284;51.040;13.722;2023-12-20T08:17:38;99435.50;;;4.83;100.00
76448;BME280;65284;51.040;13.722;2023-12-20T08:20:05;99431.06;;;4.84;100.00
76448;BME280;65284;51.040;13.722;2023-12-20T08:22:32;99440.22;;;4.89;100.00
76448;BME280;65284;51.040;13.722;2023-12-20T08:24:59;99430.66;;;4.98;100.00
76448;BME280;65284;51.040;13.722;2023-12-20T08:27:25;99434.94;;;4.99;100.00
76448;BME280;65284;51.040;13.722;2023-12-20T08:29:52;99434.81;;;5.00;100.00
76448;BME280;65284;51.040;13.722;2023-12-20T08:32:18;99434.66;;;5.02;100.00
76448;BME280;65284;51.040;13.722;2023-12-20T08:34:45;99431.91;;;5.04;100.00
76448;BME280;65284;51.040;13.722;2023-12-20T08:37:11;99418.75;;;5.04;100.00
76448;BME280;65284;51.040;13.722;2023-12-20T08:39:38;99427.72;;;5.11;100.00
76448;BME280;65284;51.040;13.722;2023-12-20T08:42:07;99418.88;;;5.12;100.00
76448;BME280;65284;51.040;13.722;2023-12-20T08:44:34;99425.66;;;5.24;100.00
76448;BME280;65284;51.040;13.722;2023-12-20T08:47:00;99425.78;;;5.22;99.95
76448;BME280;65284;51.040;13.722;2023-12-20T08:49:27;99431.19;;;5.21;99.94
76448;BME280;65284;51.040;13.722;2023-12-20T08:51:54;99433.25;;;5.17;99.39
76448;BME280;65284;51.040;13.722;2023-12-20T08:54:24;99438.09;;;5.22;98.62
76448;BME280;65284;51.040;13.722;2023-12-20T08:56:51;99439.47;;;5.26;97.17
76448;BME280;65284;51.040;13.722;2023-12-20T08:59:19;99433.25;;;5.27;95.31
76448;BME280;65284;51.040;13.722;2023-12-20T09:01:45;99440.88;;;5.30;93.08
76448;BME280;65284;51.040;13.722;2023-12-20T09:04:14;99443.22;;;5.33;91.16
76448;BME280;65284;51.040;13.722;2023-12-20T09:06:40;99455.56;;;5.33;91.04
76448;BME280;65284;51.040;13.722;2023-12-20T09:09:07;99453.19;;;5.39;89.98
76448;BME280;65284;51.040;13.722;2023-12-20T09:11:36;99452.09;;;5.42;89.88
76448;BME280;65284;51.040;13.722;2023-12-20T09:14:03;99440.44;;;5.44;89.76
76448;BME280;65284;51.040;13.722;2023-12-20T09:16:29;99444.28;;;5.50;88.68
76448;BME280;65284;51.040;13.722;2023-12-20T09:18:57;99440.16;;;5.47;90.65
76448;BME280;65284;51.040;13.722;2023-12-20T09:21:24;99451.22;;;5.51;89.13
76448;BME280;65284;51.040;13.722;2023-12-20T09:23:50;99442.88;;;5.56;90.18
76448;BME280;65284;51.040;13.722;2023-12-20T09:26:17;99440.94;;;5.58;90.57
76448;BME280;65284;51.040;13.722;2023-12-20T09:28:43;99439.00;;;5.60;91.66
76448;BME280;65284;51.040;13.722;2023-12-20T09:31:10;99442.88;;;5.65;90.99
76448;BME280;65284;51.040;13.722;2023-12-20T09:33:36;99444.69;;;5.65;91.58
76448;BME280;65284;51.040;13.722;2023-12-20T09:36:03;99417.94;;;5.60;91.89
76448;BME280;65284;51.040;13.722;2023-12-20T09:38:30;99423.63;;;5.65;91.75
76448;BME280;65284;51.040;13.722;2023-12-20T09:40:57;99417.06;;;5.69;92.46
76448;BME280;65284;51.040;13.722;2023-12-20T09:43:24;99416.38;;;5.67;91.98
76448;BME280;65284;51.040;13.722;2023-12-20T09:45:53;99414.84;;;5.64;92.76
76448;BME280;65284;51.040;13.722;2023-12-20T09:48:20;99402.53;;;5.65;92.67
76448;BME280;65284;51.040;13.722;2023-12-20T09:50:46;99410.69;;;5.62;92.66
76448;BME280;65284;51.040;13.722;2023-12-20T09:53:19;99396.81;;;5.69;91.13
76448;BME280;65284;51.040;13.722;2023-12-20T09:55:45;99406.13;;;5.64;91.67
76448;BME280;65284;51.040;13.722;2023-12-20T09:58:12;99406.00;;;5.65;91.14
76448;BME280;65284;51.040;13.722;2023-12-20T10:00:38;99409.75;;;5.63;91.33
76448;BME280;65284;51.040;13.722;2023-12-20T10:03:06;99392.94;;;5.64;90.23
76448;BME280;65284;51.040;13.722;2023-12-20T10:05:34;99392.25;;;5.62;89.41
76448;BME280;65284;51.040;13.722;2023-12-20T10:08:01;99390.22;;;5.56;90.36
76448;BME280;65284;51.040;13.722;2023-12-20T10:10:29;99393.25;;;5.61;89.78
76448;BME280;65284;51.040;13.722;2023-12-20T10:13:11;99394.22;;;5.60;89.97
76448;BME280;65284;51.040;13.722;2023-12-20T10:15:38;99385.06;;;5.64;89.43
76448;BME280;65284;51.040;13.722;2023-12-20T10:18:05;99369.94;;;5.66;88.53
76448;BME280;65284;51.040;13.722;2023-12-20T10:20:32;99404.88;;;5.68;88.53
76448;BME280;65284;51.040;13.722;2023-12-20T10:23:00;99416.53;;;5.65;88.65
76448;BME280;65284;51.040;13.722;2023-12-20T10:25:27;99396.00;;;5.69;87.94
76448;BME280;65284;51.040;13.722;2023-12-20T10:28:13;99370.72;;;5.76;87.75
76448;BME280;65284;51.040;13.722;2023-12-20T10:30:41;99368.91;;;5.77;86.85
76448;BME280;65284;51.040;13.722;2023-12-20T10:33:09;99359.34;;;5.76;87.33
76448;BME280;65284;51.040;13.722;2023-12-20T10:35:38;99379.59;;;5.75;87.02
76448;BME280;65284;51.040;13.722;2023-12-20T10:38:08;99375.16;;;5.76;87.01
76448;BME280;65284;51.040;13.722;2023-12-20T10:40:35;99375.03;;;5.77;88.14
76448;BME280;65284;51.040;13.722;2023-12-20T10:43:05;99365.56;;;5.84;86.05
76448;BME280;65284;51.040;13.722;2023-12-20T10:45:32;99349.16;;;5.90;84.38
76448;BME280;65284;51.040;13.722;2023-12-20T10:47:59;99334.03;;;5.92;85.22
76448;BME280;65284;51.040;13.722;2023-12-20T10:50:27;99322.09;;;5.88;85.39
76448;BME280;65284;51.040;13.722;2023-12-20T10:52:55;99323.50;;;5.92;85.24
76448;BME280;65284;51.040;13.722;2023-12-20T10:55:25;99328.06;;;5.90;83.99
76448;BME280;65284;51.040;13.722;2023-12-20T10:58:01;99329.31;;;5.96;84.39
76448;BME280;65284;51.040;13.722;2023-12-20T11:00:29;99329.31;;;5.96;82.90
76448;BME280;65284;51.040;13.722;2023-12-20T11:03:00;99323.75;;;5.99;82.06
76448;BME280;65284;51.040;13.722;2023-12-20T11:05:36;99349.81;;;6.02;81.71
76448;BME280;65284;51.040;13.722;2023-12-20T11:08:10;99317.66;;;5.99;81.45
76448;BME280;65284;51.040;13.722;2023-12-20T11:10:47;99358.19;;;5.98;82.00
76448;BME280;65284;51.040;13.722;2023-12-20T11:13:23;99362.25;;;6.10;82.06
76448;BME280;65284;51.040;13.722;2023-12-20T11:15:53;99345.31;;;6.12;81.27
76448;BME280;65284;51.040;13.722;2023-12-20T11:18:28;99341.69;;;6.13;80.99
76448;BME280;65284;51.040;13.722;2023-12-20T11:21:00;99348.88;;;6.21;80.48
76448;BME280;65284;51.040;13.722;2023-12-20T11:23:27;99322.50;;;6.21;80.31
76448;BME280;65284;51.040;13.722;2023-12-20T11:25:55;99336.66;;;6.20;80.12
76448;BME280;65284;51.040;13.722;2023-12-20T11:28:23;99358.34;;;6.14;79.98
76448;BME280;65284;51.040;13.722;2023-12-20T11:30:55;99326.09;;;6.20;79.68
76448;BME280;65284;51.040;13.722;2023-12-20T11:33:23;99342.63;;;6.22;80.08
76448;BME280;65284;51.040;13.722;2023-12-20T11:35:55;99335.81;;;6.20;80.27
76448;BME280;65284;51.040;13.722;2023-12-20T11:38:22;99323.94;;;6.15;80.14
76448;BME280;65284;51.040;13.722;2023-12-20T11:40:49;99305.63;;;6.14;80.99
76448;BME280;65284;51.040;13.722;2023-12-20T11:43:32;99330.63;;;6.10;80.71
76448;BME280;65284;51.040;13.722;2023-12-20T11:46:08;99310.88;;;6.14;80.20
76448;BME280;65284;51.040;13.722;2023-12-20T11:48:39;99294.25;;;6.13;79.59
76448;BME280;65284;51.040;13.722;2023-12-20T11:51:12;99306.22;;;6.08;80.42
76448;BME280;65284;51.040;13.722;2023-12-20T11:53:42;99317.06;;;6.05;80.64
76448;BME280;65284;51.040;13.722;2023-12-20T11:56:09;99318.47;;;5.99;80.43
76448;BME280;65284;51.040;13.722;2023-12-20T11:58:36;99292.00;;;6.01;80.39
76448;BME280;65284;51.040;13.722;2023-12-20T12:01:03;99318.47;;;5.99;80.50
76448;BME280;65284;51.040;13.722;2023-12-20T12:03:30;99295.22;;;5.95;80.15
76448;BME280;65284;51.040;13.722;2023-12-20T12:05:57;99269.91;;;6.02;79.66
76448;BME280;65284;51.040;13.722;2023-12-20T12:08:24;99269.91;;;6.02;80.19
76448;BME280;65284;51.040;13.722;2023-12-20T12:10:51;99280.84;;;6.07;79.91
76448;BME280;65284;51.040;13.722;2023-12-20T12:13:18;99287.75;;;6.08;80.44
76448;BME280;65284;51.040;13.722;2023-12-20T12:15:44;99274.44;;;6.09;80.87
76448;BME280;65284;51.040;13.722;2023-12-20T12:18:11;99282.34;;;6.09;80.84
76448;BME280;65284;51.040;13.722;2023-12-20T12:20:41;99268.19;;;6.10;80.45
76448;BME280;65284;51.040;13.722;2023-12-20T12:23:08;99255.81;;;6.11;80.11
76448;BME280;65284;51.040;13.722;2023-12-20T12:25:35;99244.97;;;6.14;79.49
76448;BME280;65284;51.040;13.722;2023-12-20T12:28:08;99247.31;;;6.17;79.36
76448;BME280;65284;51.040;13.722;2023-12-20T12:30:35;99244.16;;;6.13;79.35
76448;BME280;65284;51.040;13.722;2023-12-20T12:33:11;99282.56;;;6.16;79.00
76448;BME280;65284;51.040;13.722;2023-12-20T12:35:38;99224.56;;;6.16;78.50
76448;BME280;65284;51.040;13.722;2023-12-20T12:38:07;99275.88;;;6.22;77.53
76448;BME280;65284;51.040;13.722;2023-12-20T12:40:34;99203.19;;;6.19;78.01
76448;BME280;65284;51.040;13.722;2023-12-20T12:43:01;99215.38;;;6.20;78.21
76448;BME280;65284;51.040;13.722;2023-12-20T12:45:28;99223.44;;;6.19;78.37
76448;BME280;65284;51.040;13.722;2023-12-20T12:47:55;99219.31;;;6.16;78.46
76448;BME280;65284;51.040;13.722;2023-12-20T12:50:21;99199.84;;;6.17;78.40
76448;BME280;65284;51.040;13.722;2023-12-20T12:52:48;99203.09;;;6.11;78.84